createdAt,value
2023-05-01T00:00:18.773Z,92.01
2023-05-01T00:15:18.719Z,92.57
2023-05-01T00:30:18.468Z,91.49
2023-05-01T00:45:18.346Z,91.39
2023-05-01T01:00:18.213Z,91.43
2023-05-01T01:15:17.989Z,92.30
2023-05-01T01:30:17.832Z,92.86
2023-05-01T01:45:17.659Z,93.49
2023-05-01T02:00:17.617Z,94.06
2023-05-01T02:15:17.325Z,95.50
2023-05-01T02:30:17.190Z,93.99
2023-05-01T02:45:17.002Z,97.10
2023-05-01T03:00:16.828Z,97.62
2023-05-01T03:15:16.672Z,97.04
2023-05-01T03:30:16.502Z,96.06
2023-05-01T03:45:16.336Z,97.35
2023-05-01T04:00:16.181Z,97.77
2023-05-01T04:15:16.000Z,97.83
2023-05-01T04:30:15.852Z,97.12
2023-05-01T04:45:15.785Z,96.09
2023-05-01T05:00:15.499Z,92.57
2023-05-01T05:15:15.456Z,88.92
2023-05-01T05:30:15.270Z,80.64
2023-05-01T05:45:15.060Z,77.70
2023-05-01T06:00:14.885Z,70.99
2023-05-01T06:15:14.718Z,64.84
2023-05-01T06:30:14.664Z,52.06
2023-05-01T06:45:14.448Z,49.93
2023-05-01T07:00:14.229Z,47.56
2023-05-01T07:15:14.104Z,48.61
2023-05-01T07:30:15.084Z,46.13
2023-05-01T07:45:13.789Z,45.03
2023-05-01T08:00:14.196Z,43.04
2023-05-01T08:15:13.440Z,41.74
2023-05-01T08:30:13.404Z,39.68
2023-05-01T08:45:13.144Z,38.39
2023-05-01T09:00:12.958Z,38.02
2023-05-01T09:15:12.798Z,37.99
2023-05-01T09:30:12.714Z,36.44
2023-05-01T09:45:12.522Z,36.19
2023-05-01T10:00:12.381Z,35.99
2023-05-01T10:15:24.540Z,38.48
2023-05-01T10:30:11.996Z,35.66
2023-05-01T10:45:11.770Z,35.58
2023-05-01T11:00:11.685Z,35.08
2023-05-01T11:15:11.455Z,34.64
2023-05-01T11:30:11.291Z,36.81
2023-05-01T11:45:11.419Z,34.00
2023-05-01T12:00:11.679Z,31.14
2023-05-01T12:15:10.815Z,34.07
2023-05-01T12:30:10.624Z,35.18
2023-05-01T12:45:10.886Z,34.17
2023-05-01T13:00:12.545Z,32.84
2023-05-01T13:15:10.152Z,34.34
2023-05-01T13:30:10.637Z,34.22
2023-05-01T13:45:09.858Z,34.26
2023-05-01T14:00:09.749Z,33.55
2023-05-01T14:15:09.480Z,30.91
2023-05-01T14:30:10.854Z,30.11
2023-05-01T14:45:09.195Z,32.32
2023-05-01T15:00:08.986Z,33.79
2023-05-01T15:15:08.956Z,34.17
2023-05-01T15:30:08.952Z,33.15
2023-05-01T15:45:09.474Z,35.06
2023-05-01T16:00:08.353Z,34.27
2023-05-01T16:15:08.212Z,34.99
2023-05-01T16:30:08.104Z,34.31
2023-05-01T16:45:08.785Z,35.73
2023-05-01T17:00:07.867Z,36.35
2023-05-01T17:15:07.621Z,39.90
2023-05-01T17:30:07.390Z,40.54
2023-05-01T17:45:08.316Z,45.62
2023-05-01T18:00:07.166Z,48.08
2023-05-01T18:15:08.053Z,49.32
2023-05-01T18:30:07.008Z,56.59
2023-05-01T18:45:06.574Z,59.08
2023-05-01T19:00:07.011Z,63.02
2023-05-01T19:15:06.263Z,65.02
2023-05-01T19:30:06.070Z,67.15
2023-05-01T19:45:06.000Z,69.29
2023-05-01T20:00:05.763Z,68.57
2023-05-01T20:15:05.676Z,71.80
2023-05-01T20:30:05.457Z,70.40
2023-05-01T20:45:05.326Z,71.94
2023-05-01T21:00:05.167Z,73.98
2023-05-01T21:15:04.957Z,75.24
2023-05-01T21:30:04.772Z,73.40
2023-05-01T21:45:04.593Z,75.95
2023-05-01T22:00:04.405Z,75.44
2023-05-01T22:15:04.256Z,78.75
2023-05-01T22:30:04.235Z,77.83
2023-05-01T22:45:03.935Z,78.95
2023-05-01T23:00:03.848Z,78.85
2023-05-01T23:15:03.589Z,81.65
2023-05-01T23:30:03.672Z,81.48
2023-05-01T23:45:03.513Z,83.32
